createdAt,value
2019-04-20T00:02:24.002Z,43.2
2019-04-20T00:07:29.896Z,42.3
2019-04-20T00:12:36.408Z,42
2019-04-20T00:17:30.675Z,42
2019-04-20T00:22:39.241Z,42.9
2019-04-20T00:27:55.315Z,43
2019-04-20T00:32:53.170Z,43.2
2019-04-20T00:37:40.361Z,43.5
2019-04-20T00:42:48.763Z,43.8
2019-04-20T00:47:54.138Z,43.9
2019-04-20T00:52:58.933Z,43.8
2019-04-20T00:57:55.171Z,43.9
2019-04-20T01:03:09.417Z,43.9
2019-04-20T01:07:58.464Z,44.2
2019-04-20T01:13:04.145Z,44.4
2019-04-20T01:17:59.732Z,44.7
2019-04-20T01:23:07.330Z,44.8
2019-04-20T01:28:17.456Z,44.9
2019-04-20T01:33:20.985Z,45.3
2019-04-20T01:38:25.915Z,45.4
2019-04-20T01:43:12.279Z,45.4
2019-04-20T01:48:21.702Z,45.6
2019-04-20T01:53:26.786Z,45.5
2019-04-20T01:58:51.927Z,45.8
2019-04-20T02:03:28.993Z,45.9
2019-04-20T02:08:26.259Z,45.9
2019-04-20T02:13:34.533Z,46
2019-04-20T02:18:39.857Z,45.9
2019-04-20T02:23:40.632Z,46.1
2019-04-20T02:29:00.360Z,46.4
2019-04-20T02:34:03.292Z,46.5
2019-04-20T02:49:28.933Z,46.8
2019-04-20T02:54:24.396Z,47
2019-04-20T02:59:46.780Z,47.2
2019-04-20T03:03:55.878Z,47.3
2019-04-20T03:09:14.978Z,47.5
2019-04-20T03:14:13.364Z,47.5
2019-04-20T03:19:11.619Z,47.7
2019-04-20T03:24:26.426Z,47.7
2019-04-20T03:29:15.752Z,48
2019-04-20T03:39:28.320Z,47.9
2019-04-20T03:44:14.059Z,48
2019-04-20T03:49:37.708Z,48.1
2019-04-20T03:54:28.154Z,48.1
2019-04-20T03:59:36.631Z,48.3
2019-04-20T04:04:33.451Z,48.5
2019-04-20T04:09:32.387Z,48.6
2019-04-20T04:14:26.044Z,48.6
2019-04-20T04:19:31.580Z,48.7
2019-04-20T04:24:39.287Z,48.9
2019-04-20T04:29:50.438Z,48.9
2019-04-20T04:34:52.442Z,49.2
2019-04-20T04:39:58.584Z,49.3
2019-04-20T04:44:48.186Z,49.3
2019-04-20T04:49:44.666Z,49.4
2019-04-20T04:54:53.594Z,49.4
2019-04-20T04:59:47.117Z,49.6
2019-04-20T05:05:09.934Z,49.8
2019-04-20T05:09:52.839Z,50
2019-04-20T05:15:05.075Z,50
2019-04-20T05:20:13.059Z,50.1
2019-04-20T05:25:17.055Z,50.3
2019-04-20T05:30:01.850Z,50.6
2019-04-20T05:35:26.264Z,50.7
2019-04-20T05:40:26.054Z,50.8
2019-04-20T05:45:24.359Z,50.8
2019-04-20T05:50:30.092Z,50.9
2019-04-20T05:55:32.864Z,51
2019-04-20T06:00:40.037Z,51.2
2019-04-20T06:05:44.752Z,51.3
2019-04-20T06:10:44.803Z,51.6
2019-04-20T06:15:42.665Z,51.6
2019-04-20T06:20:47.504Z,51.6
2019-04-20T06:26:03.434Z,51.7
2019-04-20T06:30:46.771Z,51.8
2019-04-20T06:36:07.217Z,52.1
2019-04-20T06:41:04.822Z,52.4
2019-04-20T06:50:56.460Z,53.4
2019-04-20T06:56:09.414Z,53.9
2019-04-20T07:01:05.452Z,54.2
2019-04-20T07:06:28.288Z,54.4
2019-04-20T07:16:13.362Z,54.1
2019-04-20T07:21:20.670Z,54.4
2019-04-20T07:26:22.054Z,54.5
2019-04-20T07:31:17.990Z,54.5
2019-04-20T07:36:24.059Z,54.5
2019-04-20T07:41:32.726Z,54.7
2019-04-20T07:46:40.527Z,55
2019-04-20T07:51:18.124Z,55.1
2019-04-20T07:56:36.874Z,54.8
2019-04-20T08:01:44.723Z,54.7
2019-04-20T08:06:24.710Z,54.2
2019-04-20T08:11:37.792Z,53.6
2019-04-20T08:16:58.104Z,52.9
2019-04-20T08:21:47.136Z,52.2
2019-04-20T08:26:32.424Z,52.1
2019-04-20T08:31:39.706Z,52
2019-04-20T08:36:50.709Z,51.4
2019-04-20T08:41:55.877Z,50.7
2019-04-20T08:47:03.342Z,49.5
2019-04-20T08:52:11.217Z,47.3
2019-04-20T08:56:48.725Z,45.6
2019-04-20T09:01:44.596Z,45.1
2019-04-20T09:12:05.759Z,45
2019-04-20T09:16:56.908Z,44.6
2019-04-20T09:21:59.306Z,44
2019-04-20T09:27:08.525Z,44.6
2019-04-20T09:32:16.646Z,44.1
2019-04-20T09:37:18.749Z,43.2
2019-04-20T09:42:03.716Z,42.3
2019-04-20T09:47:07.160Z,41.4
2019-04-20T09:52:20.538Z,41.5
2019-04-20T09:57:29.347Z,41.6
2019-04-20T10:02:18.634Z,40.7
2019-04-20T10:07:18.468Z,39.1
2019-04-20T10:12:19.635Z,39.5
2019-04-20T10:17:20.794Z,41
2019-04-20T10:22:24.492Z,41.2
2019-04-20T10:27:26.425Z,39.5
2019-04-20T10:32:34.062Z,39.9
2019-04-20T10:37:31.495Z,39.2
2019-04-20T10:42:34.165Z,39.1
2019-04-20T10:47:36.730Z,38.5
2019-04-20T10:52:38.107Z,38.4
2019-04-20T10:57:41.639Z,39.4
2019-04-20T11:02:45.529Z,37.1
2019-04-20T11:07:46.316Z,38.3
2019-04-20T11:12:48.385Z,38.3
2019-04-20T11:17:51.249Z,36.7
2019-04-20T11:22:52.700Z,37
2019-04-20T11:27:56.288Z,36.4
2019-04-20T11:32:58.049Z,37.5
2019-04-20T11:38:00.898Z,37
2019-04-20T11:43:03.719Z,35.7
2019-04-20T11:48:05.379Z,36.1
2019-04-20T11:53:07.433Z,33.4
2019-04-20T11:58:10.062Z,34
2019-04-20T12:03:21.738Z,33.6
2019-04-20T12:08:14.500Z,31.7
2019-04-20T12:13:16.943Z,31.7
2019-04-20T12:18:19.782Z,31.3
2019-04-20T12:23:22.283Z,31.4
2019-04-20T12:28:25.364Z,30.9
2019-04-20T12:33:26.692Z,32
2019-04-20T12:38:29.231Z,31.9
2019-04-20T12:43:31.931Z,30.4
2019-04-20T12:48:34.074Z,29.9
2019-04-20T12:53:36.568Z,30.2
2019-04-20T12:58:41.679Z,30.5
2019-04-20T13:03:41.620Z,28.6
2019-04-20T13:08:47.548Z,26.8
2019-04-20T13:13:46.265Z,28.6
2019-04-20T13:18:48.736Z,28.2
2019-04-20T13:23:51.228Z,26.8
2019-04-20T13:28:54.989Z,28.1
2019-04-20T13:33:57.132Z,27.3
2019-04-20T13:38:59.540Z,26.8
2019-04-20T13:44:01.830Z,26.4
2019-04-20T13:49:03.375Z,26
2019-04-20T13:54:13.000Z,24.7
2019-04-20T13:59:08.215Z,25.3
2019-04-20T14:04:10.821Z,24.6
2019-04-20T14:09:13.112Z,24.1
2019-04-20T14:14:17.072Z,24
2019-04-20T14:19:18.920Z,23.4
2019-04-20T14:24:21.284Z,23.3
2019-04-20T14:29:23.118Z,22.8
2019-04-20T14:34:25.355Z,23.5
2019-04-20T14:39:28.033Z,22.3
2019-04-20T14:44:30.201Z,21.7
2019-04-20T14:49:32.721Z,22.2
2019-04-20T14:54:35.182Z,20.6
2019-04-20T14:59:37.831Z,21.6
2019-04-20T15:04:41.210Z,21
2019-04-20T15:09:42.854Z,20.8
2019-04-20T15:14:45.114Z,20
2019-04-20T15:19:47.628Z,20.2
2019-04-20T15:24:49.824Z,19.6
2019-04-20T15:29:52.174Z,19.6
2019-04-20T15:34:55.042Z,19.8
2019-04-20T15:39:57.351Z,19.6
2019-04-20T15:45:00.819Z,19.3
2019-04-20T15:50:02.362Z,18.5
2019-04-20T15:55:10.035Z,18.9
2019-04-20T16:00:06.934Z,18.9
2019-04-20T16:05:10.165Z,18.9
2019-04-20T16:10:12.937Z,18.4
2019-04-20T16:15:15.653Z,19
2019-04-20T16:20:20.012Z,18.8
2019-04-20T16:25:19.456Z,18.5
2019-04-20T16:30:21.545Z,18.8
2019-04-20T16:35:24.558Z,20.3
2019-04-20T16:40:27.289Z,20.8
2019-04-20T16:45:29.523Z,21.7
2019-04-20T16:50:31.263Z,22.6
2019-04-20T16:55:34.834Z,23.5
2019-04-20T17:00:36.262Z,24.1
2019-04-20T17:05:39.077Z,24.7
2019-04-20T17:10:41.233Z,25.3
2019-04-20T17:15:43.520Z,25.8
2019-04-20T17:20:46.411Z,26.3
2019-04-20T17:25:48.354Z,26.7
2019-04-20T17:30:52.743Z,27.2
2019-04-20T17:36:03.219Z,27.8
2019-04-20T17:41:12.504Z,28
2019-04-20T17:46:07.740Z,28.3
2019-04-20T17:51:22.221Z,28.7
2019-04-20T18:01:20.199Z,28.9
2019-04-20T18:06:25.180Z,29.1
2019-04-20T18:11:16.519Z,29.2
2019-04-20T18:16:35.186Z,29.6
2019-04-20T18:21:16.872Z,29.6
2019-04-20T18:31:21.635Z,29.8
2019-04-20T18:36:28.749Z,29.9
2019-04-20T18:41:33.773Z,30.1
2019-04-20T18:46:49.195Z,30.3
2019-04-20T18:51:30.044Z,30.3
2019-04-20T18:56:36.497Z,30.1
2019-04-20T19:01:38.342Z,30
2019-04-20T19:06:38.083Z,30
2019-04-20T19:11:43.086Z,30
2019-04-20T19:16:55.238Z,30.2
2019-04-20T19:21:45.836Z,30.9
2019-04-20T19:26:51.366Z,31.3
2019-04-20T19:32:07.162Z,31.8
2019-04-20T19:37:03.452Z,32
2019-04-20T19:42:07.738Z,32.3
2019-04-20T19:47:15.216Z,33
2019-04-20T19:57:21.869Z,33.5
2019-04-20T20:02:05.420Z,33.6
2019-04-20T20:07:15.423Z,34.1
2019-04-20T20:12:12.931Z,34.5
2019-04-20T20:17:32.462Z,34.9
2019-04-20T20:22:24.937Z,35.1
2019-04-20T20:27:23.906Z,35.5
2019-04-20T20:32:28.446Z,36.1
2019-04-20T20:37:33.590Z,36.1
2019-04-20T20:42:32.837Z,36.3
2019-04-20T20:47:53.579Z,36.6
2019-04-20T20:52:42.793Z,36.8
2019-04-20T20:57:40.769Z,37.2
2019-04-20T21:02:41.870Z,37.2
2019-04-20T21:07:36.492Z,37.2
2019-04-20T21:12:43.461Z,37.5
2019-04-20T21:18:05.110Z,37.5
2019-04-20T21:22:58.238Z,37.7
2019-04-20T21:27:46.581Z,37.8
2019-04-20T21:32:50.657Z,38.1
2019-04-20T21:37:56.675Z,38.3
2019-04-20T21:42:59.133Z,38.4
2019-04-20T21:47:56.465Z,38.6
2019-04-20T21:53:04.433Z,38.9
2019-04-20T21:58:02.161Z,39.3
2019-04-20T22:03:06.193Z,39.5
2019-04-20T22:08:08.930Z,39.7
2019-04-20T22:13:13.768Z,39.8
2019-04-20T22:18:14.590Z,40
2019-04-20T22:23:29.975Z,40
2019-04-20T22:28:16.008Z,40.2
2019-04-20T22:33:23.469Z,40.4
2019-04-20T22:38:20.563Z,40.4
2019-04-20T22:43:25.834Z,40.5
2019-04-20T22:48:25.063Z,40.6
2019-04-20T22:53:38.436Z,40.9
2019-04-20T22:58:43.099Z,41.2
2019-04-20T23:03:32.656Z,41.5
2019-04-20T23:08:34.990Z,42.5
2019-04-20T23:13:41.650Z,42.8
2019-04-20T23:18:40.285Z,42.8
2019-04-20T23:23:41.648Z,43
2019-04-20T23:28:48.041Z,43
2019-04-20T23:33:47.732Z,43.1
2019-04-20T23:38:52.614Z,43.8
2019-04-20T23:43:53.904Z,43.8
2019-04-20T23:48:54.222Z,43.9
2019-04-20T23:54:05.870Z,44
2019-04-20T23:58:59.765Z,44.3
